Time;durP1;ratioP1;P1;durP2;ratioP2;P2;SDS_P1;SDS_P2;PMS_P1;PMS_P2;Temp;Humidity;BMP_temperature;BMP_pressure;BME280_temperature;BME280_humidity;BME280_pressure;Samples;Min_cycle;Max_cycle;Signal;HPM_P1;HPM_P2
2022/12/29 00:01:13;;;;;;;7.00;3.00;;;;;;;0.31;77.68;102811.53;1795524;80;21081;-55
2022/12/29 00:03:42;;;;;;;6.90;3.83;;;;;;;0.30;77.69;102817.56;1795637;80;21139;-55
2022/12/29 00:06:10;;;;;;;7.22;4.12;;;;;;;0.28;77.58;102817.92;1795371;80;21167;-56
2022/12/29 00:08:41;;;;;;;16.10;4.90;;;;;;;0.25;77.50;102819.09;1795549;80;21085;-55
2022/12/29 00:11:19;;;;;;;15.35;6.10;;;;;;;0.22;77.44;102816.80;1795575;80;21029;-56
2022/12/29 00:16:36;;;;;;;4.90;3.27;;;;;;;0.15;77.43;102817.00;1795404;79;21546;-55
2022/12/29 00:19:05;;;;;;;13.22;4.80;;;;;;;0.13;77.40;102820.83;1795559;80;21063;-54
2022/12/29 00:35:37;;;;;;;11.28;6.03;;;;;;;-0.01;77.33;102812.52;1796275;80;21585;-54
2022/12/29 00:46:28;;;;;;;9.23;4.80;;;;;;;-0.09;77.34;102819.13;1796419;80;21070;-54
2022/12/29 00:51:44;;;;;;;11.80;4.72;;;;;;;-0.14;77.52;102821.08;1794521;80;21473;-60
2022/12/29 00:54:13;;;;;;;8.30;4.08;;;;;;;-0.15;77.62;102822.77;1815988;78;21077;-60
2022/12/29 00:56:42;;;;;;;10.43;4.12;;;;;;;-0.15;77.60;102820.17;1819994;78;21537;-61
2022/12/29 00:59:12;;;;;;;7.00;3.85;;;;;;;-0.16;77.73;102821.44;1813975;78;21110;-60
2022/12/29 01:01:41;;;;;;;14.03;5.40;;;;;;;-0.18;77.71;102820.08;1791637;78;21571;-56
2022/12/29 01:04:11;;;;;;;14.60;3.10;;;;;;;-0.20;77.78;102814.83;1792053;80;21473;-57
2022/12/29 01:06:41;;;;;;;8.15;3.98;;;;;;;-0.23;77.72;102813.41;1792190;78;21505;-57
2022/12/29 01:11:57;;;;;;;10.85;4.10;;;;;;;-0.28;77.58;102814.05;1818026;78;21947;-57
2022/12/29 01:14:26;;;;;;;6.78;2.77;;;;;;;-0.32;77.56;102815.64;1798277;78;21588;-59
2022/12/29 01:16:56;;;;;;;11.68;4.25;;;;;;;-0.38;77.64;102808.94;1793637;78;21575;-58
2022/12/29 01:19:26;;;;;;;4.35;2.90;;;;;;;-0.40;77.72;102806.28;1778020;80;21165;-58
2022/12/29 01:21:57;;;;;;;8.90;3.80;;;;;;;-0.41;77.82;102807.13;1798335;78;21133;-58
2022/12/29 01:24:26;;;;;;;10.48;3.52;;;;;;;-0.44;77.82;102803.11;1802590;78;21066;-58
2022/12/29 01:26:55;;;;;;;6.97;3.40;;;;;;;-0.44;77.86;102808.29;1792308;80;21189;-58
2022/12/29 01:29:24;;;;;;;12.88;4.75;;;;;;;-0.48;77.84;102804.20;1793725;79;21072;-59
2022/12/29 01:31:52;;;;;;;7.40;2.33;;;;;;;-0.52;77.87;102804.50;1794575;78;21091;-58
2022/12/29 01:34:21;;;;;;;9.73;4.08;;;;;;;-0.55;78.23;102806.98;1796271;78;21077;-59
2022/12/29 01:36:50;;;;;;;12.47;2.22;;;;;;;-0.58;78.52;102806.85;1816523;78;21045;-58
2022/12/29 01:39:18;;;;;;;13.00;5.20;;;;;;;-0.63;78.82;102803.19;1827197;78;21560;-60
2022/12/29 01:41:47;;;;;;;9.58;3.98;;;;;;;-0.68;78.81;102800.82;1791533;80;21034;-62
2022/12/29 01:44:54;;;;;;;9.00;3.45;;;;;;;-0.71;78.83;102802.02;1791490;80;21133;-61
2022/12/29 01:47:38;;;;;;;9.03;4.30;;;;;;;-0.74;78.79;102801.88;1769021;81;21085;-62
2022/12/29 01:50:25;;;;;;;9.83;4.78;;;;;;;-0.76;78.64;102795.77;1769400;80;21057;-62
2022/12/29 01:53:05;;;;;;;8.40;3.27;;;;;;;-0.78;78.67;102793.98;1804995;78;21077;-62
2022/12/29 01:55:37;;;;;;;9.90;3.62;;;;;;;-0.80;78.55;102797.34;1825836;77;21124;-61
2022/12/29 01:58:07;;;;;;;7.20;3.60;;;;;;;-0.84;78.47;102802.80;1828073;78;21066;-61
2022/12/29 02:00:36;;;;;;;5.20;2.98;;;;;;;-0.86;78.42;102801.85;1819434;78;21031;-62
2022/12/29 02:03:07;;;;;;;9.35;2.83;;;;;;;-0.90;78.41;102797.80;1796242;80;21221;-62
2022/12/29 02:05:48;;;;;;;14.55;4.20;;;;;;;-0.92;78.44;102790.36;1796310;80;21097;-62
2022/12/29 02:08:17;;;;;;;10.95;5.03;;;;;;;-0.92;78.61;102796.44;1796217;79;21046;-62
2022/12/29 02:10:47;;;;;;;7.97;3.60;;;;;;;-0.92;78.92;102800.31;1796250;80;21116;-62
2022/12/29 02:13:18;;;;;;;10.90;4.80;;;;;;;-0.93;78.97;102799.83;1797931;80;21066;-61
2022/12/29 02:15:59;;;;;;;8.88;3.75;;;;;;;-0.94;78.94;102797.17;1794101;79;21572;-57
2022/12/29 02:18:36;;;;;;;7.97;3.60;;;;;;;-0.95;78.83;102794.13;1793671;80;21141;-58
2022/12/29 02:21:24;;;;;;;4.83;1.98;;;;;;;-0.98;78.69;102793.58;1794839;79;21517;-57
2022/12/29 02:24:11;;;;;;;10.50;4.97;;;;;;;-0.99;78.68;102799.17;1796231;80;21035;-57
2022/12/29 02:27:00;;;;;;;4.55;2.92;;;;;;;-1.00;78.75;102795.22;1796358;80;21082;-52
2022/12/29 02:29:38;;;;;;;5.85;3.77;;;;;;;-0.99;78.99;102799.59;1766320;80;21148;-49
2022/12/29 02:32:26;;;;;;;10.53;4.08;;;;;;;-1.02;78.82;102799.45;1795521;78;21054;-62
2022/12/29 02:35:17;;;;;;;11.03;5.03;;;;;;;-1.05;78.67;102801.89;1817770;78;21205;-61
2022/12/29 02:38:06;;;;;;;8.30;4.58;;;;;;;-1.08;78.64;102803.08;1820299;78;21506;-62
2022/12/29 02:40:40;;;;;;;10.80;4.08;;;;;;;-1.13;78.59;102804.16;1790300;80;21705;-65
2022/12/29 02:43:27;;;;;;;8.63;4.70;;;;;;;-1.18;78.59;102806.57;1789622;79;21098;-62
2022/12/29 02:46:05;;;;;;;10.45;3.67;;;;;;;-1.22;78.64;102808.95;1791613;80;21565;-61
2022/12/29 02:48:39;;;;;;;9.80;3.15;;;;;;;-1.23;78.66;102810.66;1791599;80;21605;-58
2022/12/29 02:51:26;;;;;;;10.90;3.87;;;;;;;-1.23;78.65;102821.41;1791453;80;21074;-60
2022/12/29 02:56:42;;;;;;;10.08;4.42;;;;;;;-1.26;78.62;102807.93;1791574;80;21573;-60
2022/12/29 02:59:13;;;;;;;10.28;4.50;;;;;;;-1.29;78.62;102809.50;1792057;80;21617;-61
2022/12/29 03:02:19;;;;;;;21.55;4.53;;;;;;;-1.31;78.64;102800.80;1796530;80;21470;-60
2022/12/29 03:04:52;;;;;;;13.08;4.42;;;;;;;-1.32;78.70;102805.09;1796519;80;21071;-61
2022/12/29 03:07:26;;;;;;;8.28;5.17;;;;;;;-1.30;78.64;102797.41;1765968;81;21053;-62
2022/12/29 03:10:04;;;;;;;20.80;7.10;;;;;;;-1.30;78.65;102802.16;1761918;80;21481;-61
2022/12/29 03:18:26;;;;;;;17.25;5.78;;;;;;;-1.38;78.65;102816.05;1796457;79;21074;-58
2022/12/29 03:20:58;;;;;;;11.15;6.00;;;;;;;-1.41;78.83;102809.86;1764294;81;21639;-58
2022/12/29 03:23:27;;;;;;;15.65;7.35;;;;;;;-1.43;78.69;102811.09;1761503;81;21106;-58
2022/12/29 03:25:59;;;;;;;11.22;5.12;;;;;;;-1.48;78.81;102815.58;1761363;81;21580;-58
2022/12/29 03:28:31;;;;;;;8.68;3.50;;;;;;;-1.56;78.92;102814.83;1761385;81;21587;-59
2022/12/29 03:31:01;;;;;;;13.10;5.03;;;;;;;-1.63;79.04;102819.66;1761483;80;21057;-59
2022/12/29 03:33:32;;;;;;;10.58;4.53;;;;;;;-1.72;79.02;102805.92;1791290;80;21046;-58
2022/12/29 03:36:06;;;;;;;21.73;7.33;;;;;;;-1.74;79.19;102810.14;1791655;80;21492;-59
2022/12/29 03:38:40;;;;;;;13.55;5.28;;;;;;;-1.73;79.54;102814.89;1791442;80;21933;-55
2022/12/29 03:41:12;;;;;;;13.95;6.33;;;;;;;-1.73;79.62;102815.80;1783318;78;21210;-56
2022/12/29 03:43:41;;;;;;;10.30;4.75;;;;;;;-1.72;79.54;102820.13;1779599;81;21114;-55
2022/12/29 03:46:10;;;;;;;8.45;4.72;;;;;;;-1.70;79.50;102819.78;1797913;80;21622;-55
2022/12/29 03:48:40;;;;;;;10.72;4.47;;;;;;;-1.71;79.70;102817.16;1767566;81;21524;-56
2022/12/29 03:51:09;;;;;;;11.75;5.50;;;;;;;-1.71;79.78;102824.91;1797853;80;21576;-56
2022/12/29 03:53:38;;;;;;;16.40;7.37;;;;;;;-1.74;79.60;102817.89;1762684;81;21247;-58
2022/12/29 03:56:07;;;;;;;8.58;4.20;;;;;;;-1.81;79.91;102822.30;1761397;81;21138;-58
2022/12/29 03:58:36;;;;;;;6.03;3.77;;;;;;;-1.82;80.24;102832.17;1761459;81;21106;-58
2022/12/29 04:01:09;;;;;;;;;;;;;;;-1.80;80.08;102829.24;1767845;81;21198;-56
2022/12/29 04:03:38;;;;;;;17.40;5.35;;;;;;;-1.79;80.03;102824.16;1794441;80;20119;-57
2022/12/29 04:06:07;;;;;;;12.25;4.97;;;;;;;-1.84;80.20;102825.63;1791440;80;21163;-57
2022/12/29 04:08:50;;;;;;;20.60;6.53;;;;;;;-1.85;80.43;102830.73;1791592;80;21547;-58
2022/12/29 04:11:18;;;;;;;12.00;5.05;;;;;;;-1.91;80.48;102831.75;1791266;80;21396;-56
2022/12/29 04:13:47;;;;;;;13.43;4.57;;;;;;;-1.92;80.41;102827.38;1755385;80;21090;-56
2022/12/29 04:16:18;;;;;;;16.37;5.67;;;;;;;-1.94;80.30;102835.05;1796601;79;21598;-56
2022/12/29 04:18:46;;;;;;;12.40;4.87;;;;;;;-1.95;80.17;102831.59;1797943;80;21015;-57
2022/12/29 04:21:15;;;;;;;20.95;6.28;;;;;;;-1.95;80.24;102832.02;1770709;80;21025;-56
2022/12/29 04:23:44;;;;;;;5.42;3.27;;;;;;;-1.99;80.60;102832.28;1772915;80;21185;-57
2022/12/29 04:26:14;;;;;;;12.28;5.80;;;;;;;-2.00;80.63;102830.49;1791609;80;21518;-58
2022/12/29 04:28:59;;;;;;;7.40;3.37;;;;;;;-2.01;80.73;102842.03;1766899;80;21172;-58
2022/12/29 04:31:35;;;;;;;13.28;6.22;;;;;;;-2.04;80.58;102833.75;1791373;80;21134;-57
2022/12/29 04:34:04;;;;;;;15.93;4.62;;;;;;;-2.08;80.58;102839.59;1739070;82;21482;-57
2022/12/29 04:36:34;;;;;;;5.58;2.50;;;;;;;-2.10;80.68;102839.94;1739153;82;21514;-57
2022/12/29 04:39:05;;;;;;;6.83;3.17;;;;;;;-2.09;80.63;102842.97;1774382;79;21140;-57
2022/12/29 04:41:34;;;;;;;19.07;4.85;;;;;;;-2.08;80.50;102847.34;1795249;80;21194;-58
2022/12/29 04:44:04;;;;;;;14.38;5.03;;;;;;;-2.08;80.38;102851.62;1793143;80;21200;-58
2022/12/29 04:46:50;;;;;;;10.75;5.03;;;;;;;-2.09;80.34;102852.01;1793149;80;21638;-58
2022/12/29 04:49:20;;;;;;;22.20;7.40;;;;;;;-2.10;80.25;102854.13;1789438;79;21086;-57
2022/12/29 04:51:58;;;;;;;11.30;4.85;;;;;;;-2.08;80.41;102860.25;1791514;79;21062;-57
2022/12/29 04:54:27;;;;;;;15.10;6.58;;;;;;;-2.08;80.59;102856.38;1795373;80;21147;-57
2022/12/29 04:56:57;;;;;;;19.32;6.92;;;;;;;-2.14;80.59;102867.30;1793364;80;21552;-57
2022/12/29 04:59:26;;;;;;;14.07;6.08;;;;;;;-2.15;80.74;102868.51;1795398;79;21053;-57
2022/12/29 05:01:56;;;;;;;13.95;5.90;;;;;;;-2.17;80.72;102874.89;1794820;79;21116;-57
2022/12/29 05:04:25;;;;;;;10.55;4.78;;;;;;;-2.15;80.66;102876.25;1793164;80;21133;-57
2022/12/29 05:06:54;;;;;;;24.12;6.08;;;;;;;-2.13;80.67;102877.21;1793224;80;21185;-57
2022/12/29 05:09:24;;;;;;;11.38;4.53;;;;;;;-2.11;80.62;102874.29;1793202;80;21134;-57
2022/12/29 05:11:52;;;;;;;28.67;7.25;;;;;;;-2.08;80.52;102881.31;1793282;80;21100;-57
2022/12/29 05:14:21;;;;;;;7.33;2.35;;;;;;;-2.12;80.58;102876.41;1794853;80;21159;-56
2022/12/29 05:16:50;;;;;;;9.50;3.98;;;;;;;-2.14;80.62;102878.91;1795364;80;21096;-58
2022/12/29 05:19:19;;;;;;;10.05;3.85;;;;;;;-2.13;80.61;102887.53;1795380;80;21064;-57
2022/12/29 05:21:48;;;;;;;12.20;7.22;;;;;;;-2.09;80.54;102889.44;1795392;80;21138;-57
2022/12/29 05:24:17;;;;;;;8.65;2.87;;;;;;;-2.06;80.48;102905.09;1794033;80;21038;-58
2022/12/29 05:26:46;;;;;;;15.03;4.72;;;;;;;-1.94;80.51;102899.61;1762173;80;21560;-57
2022/12/29 05:29:31;;;;;;;23.65;5.80;;;;;;;-1.66;80.49;102898.30;1791236;78;21674;-57
2022/12/29 05:32:00;;;;;;;16.07;5.10;;;;;;;-1.25;80.18;102899.31;1793796;80;21104;-57
2022/12/29 05:34:31;;;;;;;13.18;5.70;;;;;;;-0.85;79.90;102903.22;1795344;80;21093;-57
2022/12/29 05:37:00;;;;;;;8.48;4.08;;;;;;;-0.36;79.40;102904.78;1795406;80;21139;-57
2022/12/29 05:39:29;;;;;;;20.57;5.37;;;;;;;0.13;78.75;102908.00;1795387;80;21104;-57
2022/12/29 05:42:00;;;;;;;8.05;4.97;;;;;;;0.65;77.98;102909.12;1794678;80;21169;-56
2022/12/29 05:44:42;;;;;;;18.35;6.00;;;;;;;1.03;77.30;102902.68;1764531;80;21140;-57
2022/12/29 05:47:25;;;;;;;15.90;6.03;;;;;;;1.70;76.64;102909.70;1777682;80;21524;-59
2022/12/29 05:49:55;;;;;;;12.13;5.53;;;;;;;2.43;75.34;102910.20;1791346;79;21060;-60
2022/12/29 05:52:42;;;;;;;10.53;5.33;;;;;;;3.17;74.26;102900.14;1795367;80;21101;-58
2022/12/29 05:55:11;;;;;;;12.78;4.42;;;;;;;3.97;73.31;102898.61;1795584;80;21045;-60
2022/12/29 05:57:41;;;;;;;14.13;5.20;;;;;;;4.59;72.65;102897.79;1795643;80;21586;-59
2022/12/29 06:00:12;;;;;;;12.33;5.87;;;;;;;5.05;72.26;102902.13;1795346;79;21161;-57
2022/12/29 06:02:44;;;;;;;15.08;4.90;;;;;;;5.22;71.99;102896.80;1795660;80;21096;-57
2022/12/29 06:05:14;;;;;;;17.70;6.05;;;;;;;5.33;71.82;102908.32;1795419;80;21112;-57
2022/12/29 06:07:44;;;;;;;13.93;5.75;;;;;;;5.64;71.62;102904.89;1795644;80;21178;-58
2022/12/29 06:10:15;;;;;;;14.20;5.55;;;;;;;5.84;71.64;102910.88;1795390;80;21088;-59
2022/12/29 06:12:48;;;;;;;20.82;5.90;;;;;;;5.66;71.81;102921.91;1794878;80;21065;-59
2022/12/29 06:15:17;;;;;;;11.25;5.40;;;;;;;5.73;71.41;102928.56;1793466;80;21652;-59
2022/12/29 06:17:47;;;;;;;16.62;5.25;;;;;;;6.41;70.61;102920.44;1793152;80;21062;-59
2022/12/29 06:20:16;;;;;;;11.28;4.37;;;;;;;6.73;69.98;102917.34;1793527;80;21140;-59
2022/12/29 06:22:46;;;;;;;14.33;5.00;;;;;;;6.23;67.70;102920.19;1793387;80;21140;-59
2022/12/29 06:25:15;;;;;;;14.68;4.65;;;;;;;6.28;67.65;102922.02;1793367;80;21156;-59
2022/12/29 06:27:45;;;;;;;15.83;6.17;;;;;;;5.85;67.06;102919.19;1793404;80;21066;-59
2022/12/29 06:30:14;;;;;;;12.40;3.87;;;;;;;5.82;67.00;102926.53;1793372;80;21130;-59
2022/12/29 06:32:45;;;;;;;8.15;4.30;;;;;;;5.78;65.88;102922.98;1793563;78;21058;-60
2022/12/29 06:35:14;;;;;;;9.98;4.83;;;;;;;5.01;65.79;102921.64;1793555;80;21046;-59
2022/12/29 06:37:48;;;;;;;12.55;5.40;;;;;;;4.62;66.63;102922.63;1792373;80;21082;-60
2022/12/29 06:40:16;;;;;;;12.03;4.85;;;;;;;4.19;66.40;102918.23;1793194;80;21063;-61
2022/12/29 06:42:55;;;;;;;13.30;4.03;;;;;;;4.22;67.40;102921.79;1772981;80;21105;-61
2022/12/29 06:45:32;;;;;;;13.85;5.00;;;;;;;4.80;66.56;102929.08;1779660;80;21501;-61
2022/12/29 06:48:01;;;;;;;21.40;6.42;;;;;;;5.51;66.24;102923.41;1793398;80;21168;-58
2022/12/29 06:50:29;;;;;;;22.65;7.85;;;;;;;6.28;65.34;102923.76;1793330;80;21066;-59
2022/12/29 06:52:58;;;;;;;16.23;6.28;;;;;;;6.55;64.17;102922.81;1794662;80;21053;-59
2022/12/29 06:55:28;;;;;;;12.07;4.92;;;;;;;7.01;63.69;102915.03;1795589;80;21084;-58
2022/12/29 06:57:58;;;;;;;14.73;5.67;;;;;;;7.78;63.36;102910.48;1795610;80;21480;-58
2022/12/29 07:00:27;;;;;;;19.90;6.65;;;;;;;8.01;63.20;102917.22;1795517;80;21049;-58
2022/12/29 07:02:59;;;;;;;16.00;7.47;;;;;;;8.29;62.94;102916.50;1794095;80;21070;-58
2022/12/29 07:05:31;;;;;;;15.03;7.33;;;;;;;8.66;62.53;102920.63;1793367;80;21152;-58
2022/12/29 07:07:59;;;;;;;22.85;9.15;;;;;;;9.14;62.07;102921.22;1793198;80;21091;-58
2022/12/29 07:10:28;;;;;;;21.23;11.95;;;;;;;9.30;62.04;102923.45;1793194;80;21683;-59
2022/12/29 07:12:57;;;;;;;17.92;10.03;;;;;;;9.85;61.24;102915.55;1793664;80;21090;-59
2022/12/29 07:15:25;;;;;;;16.30;6.83;;;;;;;10.29;60.15;102918.95;1795495;80;21143;-60
2022/12/29 07:17:54;;;;;;;18.15;7.45;;;;;;;10.46;59.70;102921.55;1795384;80;21138;-57
2022/12/29 07:20:23;;;;;;;22.13;8.30;;;;;;;10.40;59.06;102920.72;1795438;80;21060;-57
2022/12/29 07:22:53;;;;;;;17.35;7.20;;;;;;;10.05;59.34;102923.39;1795159;80;21177;-57
2022/12/29 07:25:21;;;;;;;15.08;6.42;;;;;;;9.80;59.50;102925.20;1795548;80;21139;-57
2022/12/29 07:27:50;;;;;;;14.03;6.10;;;;;;;9.93;59.45;102932.64;1795464;80;21069;-57
2022/12/29 07:30:19;;;;;;;14.80;6.15;;;;;;;10.42;59.04;102931.22;1795266;80;21105;-56
2022/12/29 07:32:48;;;;;;;10.58;5.72;;;;;;;11.10;58.42;102929.59;1795433;80;21033;-57
2022/12/29 07:35:17;;;;;;;12.68;4.95;;;;;;;11.47;57.83;102928.02;1791445;80;21058;-59
2022/12/29 07:37:45;;;;;;;12.40;5.72;;;;;;;11.82;57.23;102934.30;1790711;80;21185;-58
2022/12/29 07:40:14;;;;;;;12.00;6.40;;;;;;;12.34;56.27;102920.61;1790681;80;21096;-58
2022/12/29 07:42:42;;;;;;;12.85;6.45;;;;;;;12.76;55.15;102922.72;1790551;80;21057;-59
2022/12/29 07:45:15;;;;;;;10.88;5.17;;;;;;;13.38;53.52;102923.20;1793080;80;21119;-58
2022/12/29 07:47:52;;;;;;;18.37;6.12;;;;;;;14.06;52.85;102910.97;1794405;80;21169;-59
2022/12/29 07:50:20;;;;;;;23.98;5.87;;;;;;;14.58;51.81;102913.92;1795392;80;21461;-59
2022/12/29 07:52:49;;;;;;;30.17;6.55;;;;;;;14.95;51.35;102909.59;1795431;80;21143;-59
2022/12/29 07:55:21;;;;;;;10.63;4.53;;;;;;;15.25;51.18;102903.58;1794549;80;21066;-59
2022/12/29 07:57:49;;;;;;;9.85;4.40;;;;;;;15.88;50.13;102901.56;1793143;80;21086;-59
2022/12/29 08:00:19;;;;;;;10.65;3.70;;;;;;;16.45;49.51;102900.86;1794390;80;21116;-59
2022/12/29 08:02:47;;;;;;;15.48;4.67;;;;;;;16.51;49.29;102907.31;1793101;80;21103;-57
2022/12/29 08:05:16;;;;;;;15.03;4.20;;;;;;;15.82;50.15;102895.52;1793267;80;21090;-57
2022/12/29 08:07:49;;;;;;;9.43;3.22;;;;;;;15.46;49.93;102895.13;1793152;79;21565;-60
2022/12/29 08:10:18;;;;;;;8.05;3.42;;;;;;;15.35;49.87;102892.73;1793003;80;21306;-57
2022/12/29 08:12:47;;;;;;;5.05;2.58;;;;;;;15.75;48.92;102880.66;1793057;80;21401;-57
2022/12/29 08:15:16;;;;;;;9.65;3.00;;;;;;;16.39;47.63;102878.42;1793177;80;21090;-58
2022/12/29 08:17:44;;;;;;;5.92;2.60;;;;;;;16.96;46.91;102874.05;1793173;80;21654;-57
2022/12/29 08:20:13;;;;;;;9.68;3.15;;;;;;;17.16;46.05;102864.09;1793138;80;21201;-58
2022/12/29 08:22:41;;;;;;;11.15;3.15;;;;;;;17.59;45.75;102857.77;1793121;80;21248;-59
2022/12/29 08:25:13;;;;;;;7.78;3.62;;;;;;;17.77;45.26;102860.25;1793095;80;21244;-59
2022/12/29 08:27:42;;;;;;;5.78;3.37;;;;;;;17.99;44.78;102849.25;1792746;80;21141;-55
2022/12/29 08:30:12;;;;;;;5.78;1.80;;;;;;;18.28;44.55;102844.63;1790572;79;21047;-55
2022/12/29 08:32:41;;;;;;;3.83;1.90;;;;;;;18.10;44.23;102847.52;1786419;80;21183;-57
2022/12/29 08:35:10;;;;;;;5.62;2.67;;;;;;;18.43;43.14;102838.70;1788106;80;21058;-57
2022/12/29 08:37:38;;;;;;;6.92;2.45;;;;;;;18.51;42.87;102828.58;1788160;80;21157;-58
2022/12/29 08:40:08;;;;;;;4.55;1.70;;;;;;;18.30;42.72;102833.44;1788190;80;21148;-58
2022/12/29 08:42:37;;;;;;;6.83;2.00;;;;;;;18.02;42.96;102832.26;1785360;80;21039;-58
2022/12/29 08:45:08;;;;;;;5.00;1.70;;;;;;;18.20;42.36;102825.38;1783585;80;21108;-58
2022/12/29 08:47:37;;;;;;;3.80;1.62;;;;;;;18.97;41.17;102836.57;1783409;80;21200;-58
2022/12/29 08:50:06;;;;;;;4.20;2.10;;;;;;;19.46;40.41;102828.30;1783591;80;21094;-59
2022/12/29 08:52:35;;;;;;;3.85;1.77;;;;;;;20.16;38.98;102815.38;1783480;80;21161;-59
2022/12/29 08:55:04;;;;;;;3.37;1.50;;;;;;;20.72;38.01;102818.52;1783492;80;21051;-59
2022/12/29 08:57:35;;;;;;;7.12;2.00;;;;;;;21.00;37.73;102810.45;1783589;80;21035;-59
2022/12/29 09:00:14;;;;;;;7.35;2.58;;;;;;;21.31;37.08;102799.52;1782564;80;21043;-59
2022/12/29 09:02:43;;;;;;;4.05;1.65;;;;;;;21.44;36.66;102804.62;1783245;80;21148;-58
2022/12/29 09:05:12;;;;;;;5.35;2.20;;;;;;;21.49;36.59;102799.07;1783417;80;21043;-58
2022/12/29 09:07:41;;;;;;;5.00;1.70;;;;;;;21.46;36.16;102794.72;1783564;80;21031;-58
2022/12/29 09:10:10;;;;;;;6.03;2.25;;;;;;;21.63;35.54;102798.33;1783214;80;21039;-58
2022/12/29 09:12:38;;;;;;;4.50;1.40;;;;;;;21.92;35.03;102792.73;1783432;80;21075;-58
2022/12/29 09:15:08;;;;;;;3.85;1.62;;;;;;;22.07;34.70;102782.48;1783473;80;21601;-58
2022/12/29 09:17:46;;;;;;;5.05;1.20;;;;;;;22.14;33.95;102777.17;1783565;80;21047;-58
2022/12/29 09:20:18;;;;;;;2.45;1.20;;;;;;;22.09;34.20;102785.09;1783850;79;21082;-57
2022/12/29 09:22:48;;;;;;;2.95;1.02;;;;;;;22.12;34.02;102778.23;1806996;79;21098;-58
2022/12/29 09:25:17;;;;;;;7.15;1.10;;;;;;;22.31;33.61;102779.42;1819419;79;21012;-59
2022/12/29 09:27:47;;;;;;;2.30;1.17;;;;;;;22.32;33.20;102778.00;1799501;79;21070;-59
2022/12/29 09:30:16;;;;;;;5.40;1.50;;;;;;;22.37;32.92;102779.06;1783447;80;21110;-58
2022/12/29 09:32:44;;;;;;;1.60;1.37;;;;;;;22.17;32.81;102772.13;1793103;80;21153;-58
2022/12/29 09:35:14;;;;;;;2.75;1.35;;;;;;;22.31;32.60;102774.91;1793319;80;21515;-61
2022/12/29 09:37:43;;;;;;;4.50;1.70;;;;;;;22.52;32.46;102771.95;1793164;80;21616;-61
2022/12/29 09:40:15;;;;;;;3.95;1.80;;;;;;;22.49;32.20;102772.14;1820359;78;21113;-61
2022/12/29 09:43:04;;;;;;;6.12;1.87;;;;;;;20.66;33.99;102779.13;1830337;78;21015;-64
2022/12/29 09:45:48;;;;;;;2.58;1.22;;;;;;;20.25;34.44;102777.49;1832323;78;21146;-61
2022/12/29 09:48:19;;;;;;;2.85;1.47;;;;;;;20.12;34.48;102769.66;1831840;78;21039;-63
2022/12/29 09:50:53;;;;;;;6.28;2.15;;;;;;;17.75;37.19;102769.23;1832481;78;21003;-61
2022/12/29 09:53:28;;;;;;;3.42;1.60;;;;;;;16.30;38.97;102780.33;1832369;78;21192;-57
2022/12/29 09:55:59;;;;;;;4.17;1.37;;;;;;;15.23;40.21;102769.16;1832439;78;21031;-53
2022/12/29 09:58:47;;;;;;;2.50;1.27;;;;;;;14.18;41.31;102765.00;1832404;78;21688;-55
2022/12/29 10:01:44;;;;;;;6.33;1.60;;;;;;;14.46;41.56;102753.80;1832406;78;21126;-55
2022/12/29 10:04:13;;;;;;;4.37;1.32;;;;;;;14.38;41.06;102753.95;1832499;78;21020;-54
2022/12/29 10:06:54;;;;;;;3.60;1.40;;;;;;;13.75;42.29;102747.84;1832390;78;20999;-53
2022/12/29 10:09:46;;;;;;;4.05;1.37;;;;;;;13.34;42.87;102743.77;1832409;78;20995;-54
2022/12/29 10:12:30;;;;;;;8.33;1.45;;;;;;;12.94;43.56;102743.11;1810026;78;21022;-57
2022/12/29 10:15:16;;;;;;;7.05;1.47;;;;;;;15.66;40.15;102738.80;1793233;80;21148;-59
2022/12/29 10:17:48;;;;;;;7.97;1.67;;;;;;;18.16;37.00;102731.78;1767249;80;21092;-59
2022/12/29 10:20:26;;;;;;;2.47;1.10;;;;;;;19.40;33.83;102732.38;1768105;81;21602;-61
2022/12/29 10:23:12;;;;;;;1.20;0.62;;;;;;;17.29;36.14;102742.95;1767865;81;21072;-61
2022/12/29 10:25:43;;;;;;;1.77;1.10;;;;;;;14.88;37.08;102736.44;1738344;81;21107;-61
2022/12/29 10:28:27;;;;;;;4.42;1.27;;;;;;;13.22;39.33;102747.92;1768167;81;21468;-60
2022/12/29 10:30:58;;;;;;;;;;;;;;;12.42;41.28;102748.78;1770735;81;21577;-60
2022/12/29 10:33:38;;;;;;;7.95;1.17;;;;;;;11.69;42.05;102747.52;1774996;78;20162;-58
2022/12/29 10:36:15;;;;;;;3.37;1.10;;;;;;;11.34;43.64;102749.20;1816476;78;21128;-58
2022/12/29 10:38:47;;;;;;;2.83;0.80;;;;;;;11.13;44.30;102740.61;1797878;78;21131;-58
2022/12/29 10:41:21;;;;;;;4.80;0.98;;;;;;;11.00;44.73;102738.98;1789810;79;21060;-57
2022/12/29 10:43:51;;;;;;;3.30;1.62;;;;;;;10.78;45.15;102736.52;1768216;81;21131;-58
2022/12/29 10:46:26;;;;;;;3.08;1.37;;;;;;;10.89;45.43;102740.84;1768090;81;21036;-58
2022/12/29 10:48:55;;;;;;;3.12;1.10;;;;;;;11.64;44.69;102739.20;1812597;78;21049;-59
2022/12/29 10:51:26;;;;;;;4.60;1.07;;;;;;;11.61;44.82;102739.26;1784200;78;21096;-61
2022/12/29 10:53:58;;;;;;;3.17;1.10;;;;;;;11.44;45.43;102733.72;1768196;81;21593;-62
2022/12/29 10:56:32;;;;;;;3.67;1.20;;;;;;;11.32;45.93;102743.94;1766773;81;21092;-62
2022/12/29 10:59:20;;;;;;;3.02;1.00;;;;;;;11.15;46.46;102734.87;1768034;81;21586;-55
2022/12/29 11:02:07;;;;;;;2.58;1.00;;;;;;;10.97;46.92;102737.68;1768259;81;21154;-56
2022/12/29 11:04:59;;;;;;;2.40;0.88;;;;;;;10.72;47.28;102730.45;1768235;81;21056;-58
2022/12/29 11:07:30;;;;;;;3.85;1.27;;;;;;;10.39;47.78;102722.75;1768113;80;21068;-57
2022/12/29 11:10:39;;;;;;;9.08;1.60;;;;;;;10.26;48.23;102718.88;1768184;81;21056;-58
2022/12/29 11:13:18;;;;;;;5.20;1.40;;;;;;;10.15;48.27;102714.98;1768297;81;21099;-58
2022/12/29 11:15:49;;;;;;;1.92;0.85;;;;;;;9.89;48.38;102713.81;1778111;80;21112;-59
2022/12/29 11:18:26;;;;;;;3.67;0.75;;;;;;;9.77;48.61;102710.33;1795477;80;21116;-61
2022/12/29 11:21:01;;;;;;;3.17;0.90;;;;;;;9.61;48.70;102701.64;1795366;80;21096;-58
2022/12/29 11:26:31;;;;;;;2.08;0.80;;;;;;;12.41;43.82;102698.14;1796935;80;21556;-58
2022/12/29 11:29:27;;;;;;;1.80;0.80;;;;;;;11.61;44.94;102703.63;1769968;81;21037;-58
2022/12/29 11:31:58;;;;;;;1.22;0.70;;;;;;;11.01;46.06;102701.17;1764252;81;21110;-61
2022/12/29 11:34:30;;;;;;;2.72;0.60;;;;;;;10.47;46.85;102696.81;1769813;80;21111;-58
2022/12/29 11:37:18;;;;;;;1.17;0.70;;;;;;;9.95;47.15;102709.38;1763093;81;21074;-60
2022/12/29 11:39:59;;;;;;;0.72;0.53;;;;;;;9.50;47.73;102702.12;1768496;81;21118;-60
2022/12/29 11:42:36;;;;;;;4.72;0.75;;;;;;;9.24;48.22;102704.37;1768729;81;21172;-60
2022/12/29 11:45:17;;;;;;;0.75;0.53;;;;;;;9.09;48.44;102707.00;1768552;81;21141;-61
2022/12/29 11:47:54;;;;;;;2.47;0.70;;;;;;;9.02;48.55;102717.98;1768637;80;21088;-60
2022/12/29 11:50:29;;;;;;;3.75;1.02;;;;;;;8.95;48.83;102708.80;1768695;81;21033;-60
2022/12/29 11:53:03;;;;;;;3.12;0.80;;;;;;;8.93;48.93;102707.48;1762589;81;21164;-62
2022/12/29 11:55:33;;;;;;;5.10;0.90;;;;;;;8.97;49.06;102709.67;1720515;82;21053;-60
2022/12/29 11:58:04;;;;;;;1.98;0.90;;;;;;;9.02;49.06;102718.43;1739156;82;21077;-60
2022/12/29 12:00:36;;;;;;;5.37;1.15;;;;;;;9.05;48.93;102715.78;1762657;81;21057;-60
2022/12/29 12:03:19;;;;;;;5.05;1.00;;;;;;;9.09;48.83;102717.52;1768536;81;21078;-59
2022/12/29 12:05:54;;;;;;;2.92;1.00;;;;;;;9.07;49.00;102727.16;1768637;81;21219;-59
2022/12/29 12:08:25;;;;;;;2.47;0.98;;;;;;;9.05;48.88;102731.55;1762458;80;21148;-59
2022/12/29 12:11:21;;;;;;;2.65;0.90;;;;;;;9.06;48.73;102733.31;1768087;79;21141;-62
2022/12/29 12:14:05;;;;;;;0.72;0.45;;;;;;;9.08;48.50;102724.98;1757636;81;21129;-59
2022/12/29 12:16:50;;;;;;;1.27;0.55;;;;;;;9.11;48.54;102721.46;1736465;82;21157;-58
2022/12/29 12:19:28;;;;;;;11.70;2.08;;;;;;;9.30;48.01;102719.26;1797895;80;21049;-58
2022/12/29 12:21:59;;;;;;;2.17;1.05;;;;;;;10.27;46.68;102714.03;1798438;80;21105;-62
2022/12/29 12:24:37;;;;;;;2.45;0.88;;;;;;;11.20;44.66;102715.94;1798007;80;21683;-59
2022/12/29 12:27:14;;;;;;;2.67;1.00;;;;;;;11.34;43.94;102721.51;1824565;79;21066;-60
2022/12/29 12:29:55;;;;;;;4.08;0.72;;;;;;;10.74;44.34;102722.95;1824511;78;21152;-60
2022/12/29 12:32:29;;;;;;;6.12;2.47;;;;;;;10.09;45.52;102721.16;1824241;79;21380;-60
2022/12/29 12:34:58;;;;;;;6.72;1.45;;;;;;;9.57;46.17;102720.05;1801869;79;21066;-60